Saddlestring, Wyoming
Current Conditions -  °F | °C
As of 3:53 PM on Saturday 25 Oct 2014 (Local Time) from KBYG Reporting Station
Clear Clear  
Wind Chill: 79°   Ceiling: Unl
Heat Index: 79°   Visibility: 10mi
Dew Point: 16°   Wind: 16mph
Humidity: 9%   Direction: 190°S
Pressure: 29.91"   Gusts: NA
Location:  44.46°N, 106.9°W
Report Text: KBYG 252153Z AUTO 19014KT 10SM CLR 26/M09 A2991 RMK AO2 SLP089 T02611089
Loading
Personal Weather Stations






























Interactive Weather Map
Tropical Storm Tracking
New forecast layout! Learn more

10-Day Weather Forecast

Advertisements
Track Severe Weather on mobile